Time;durP1;ratioP1;P1;durP2;ratioP2;P2;SDS_P1;SDS_P2;PMS_P1;PMS_P2;Temp;Humidity;BMP_temperature;BMP_pressure;BME280_temperature;BME280_humidity;BME280_pressure;Samples;Min_cycle;Max_cycle;Signal;HPM_P1;HPM_P2
2021/12/08 00:01:08;;;;;;;4.28;1.42;;;3.80;99.90;;;;;;4994058;28;20483;-82
2021/12/08 00:03:33;;;;;;;4.63;1.73;;;3.80;99.90;;;;;;4991267;28;20050;-82
2021/12/08 00:05:59;;;;;;;4.47;1.42;;;3.80;99.90;;;;;;4991929;28;20050;-82
2021/12/08 00:08:28;;;;;;;4.10;1.45;;;3.80;99.90;;;;;;4992616;28;20556;-82
2021/12/08 00:13:25;;;;;;;4.68;1.52;;;3.90;99.90;;;;;;4994706;28;20082;-82
2021/12/08 00:15:54;;;;;;;5.10;1.67;;;3.80;99.90;;;;;;4981456;28;20053;-82
2021/12/08 00:18:24;;;;;;;7.32;2.17;;;3.80;99.90;;;;;;4972925;28;20045;-82
2021/12/08 00:20:53;;;;;;;4.75;1.50;;;3.90;99.90;;;;;;4977222;28;20042;-82
2021/12/08 00:23:20;;;;;;;8.05;2.90;;;3.80;99.90;;;;;;5007874;28;20085;-82
2021/12/08 00:25:46;;;;;;;8.10;1.80;;;3.80;99.90;;;;;;4988583;28;20543;-82
2021/12/08 00:28:12;;;;;;;5.18;1.73;;;3.90;99.90;;;;;;4968988;28;20046;-82
2021/12/08 00:30:40;;;;;;;6.05;1.38;;;3.90;99.90;;;;;;5008630;28;20053;-82
2021/12/08 00:33:08;;;;;;;5.95;1.33;;;3.90;99.90;;;;;;4992687;28;20062;-82
2021/12/08 00:35:34;;;;;;;7.65;1.98;;;3.90;99.90;;;;;;4991016;28;20045;-82
2021/12/08 00:38:01;;;;;;;6.10;1.73;;;3.90;99.90;;;;;;4992127;28;20034;-82
2021/12/08 00:40:28;;;;;;;5.47;1.67;;;3.80;99.90;;;;;;4978227;28;20128;-82
2021/12/08 00:42:54;;;;;;;10.23;2.17;;;3.80;99.90;;;;;;4992003;28;20053;-82
2021/12/08 00:45:21;;;;;;;6.40;2.13;;;3.80;99.90;;;;;;4974938;28;20479;-81
2021/12/08 00:47:48;;;;;;;8.02;2.38;;;3.80;99.90;;;;;;4990573;28;20125;-81
2021/12/08 00:50:14;;;;;;;9.85;2.28;;;3.80;99.90;;;;;;4991193;28;20038;-82
2021/12/08 00:52:40;;;;;;;5.25;1.88;;;3.80;99.90;;;;;;4991381;28;20030;-82
2021/12/08 00:55:09;;;;;;;9.95;2.22;;;3.80;99.90;;;;;;4990454;28;20506;-82
2021/12/08 00:57:35;;;;;;;6.63;1.90;;;3.80;99.90;;;;;;4985703;28;20041;-82
2021/12/08 01:00:04;;;;;;;5.75;1.95;;;3.80;99.90;;;;;;5006605;28;20502;-82
2021/12/08 01:02:30;;;;;;;4.10;1.98;;;3.80;99.90;;;;;;4991435;28;20093;-82
2021/12/08 01:04:57;;;;;;;5.35;2.05;;;3.80;99.90;;;;;;4991175;28;20093;-82
2021/12/08 01:07:23;;;;;;;10.32;2.33;;;3.80;99.90;;;;;;4975427;28;20073;-82
2021/12/08 01:09:48;;;;;;;6.43;2.35;;;3.80;99.90;;;;;;4991973;28;20500;-82
2021/12/08 01:12:15;;;;;;;6.47;2.35;;;3.80;99.90;;;;;;4991234;28;20038;-82
2021/12/08 01:14:41;;;;;;;7.25;1.48;;;3.80;99.90;;;;;;4974816;28;20046;-82
2021/12/08 01:17:06;;;;;;;5.03;2.38;;;3.80;99.90;;;;;;4997890;28;20180;-82
2021/12/08 01:19:33;;;;;;;8.73;2.55;;;3.80;99.90;;;;;;4989676;28;20039;-82
2021/12/08 01:21:59;;;;;;;5.97;2.30;;;3.80;99.90;;;;;;4962393;28;20042;-82
2021/12/08 01:24:25;;;;;;;8.07;2.63;;;3.80;99.90;;;;;;4979648;28;20048;-82
2021/12/08 01:26:51;;;;;;;5.63;2.67;;;3.80;99.90;;;;;;5004159;28;20038;-82
2021/12/08 01:29:16;;;;;;;5.82;2.28;;;3.80;99.90;;;;;;4985954;28;20045;-82
2021/12/08 01:31:43;;;;;;;6.32;2.58;;;3.80;99.90;;;;;;4976038;28;20112;-82
2021/12/08 01:34:11;;;;;;;3.40;1.80;;;3.80;99.90;;;;;;4991817;28;20046;-82
2021/12/08 01:36:38;;;;;;;9.32;2.55;;;3.90;99.90;;;;;;4976235;28;20479;-82
2021/12/08 01:39:05;;;;;;;6.70;2.33;;;3.80;99.90;;;;;;4992179;28;20073;-82
2021/12/08 01:41:31;;;;;;;5.78;2.42;;;3.90;99.90;;;;;;4991696;28;20105;-82
2021/12/08 01:46:41;;;;;;;8.27;2.95;;;3.90;99.90;;;;;;4998292;28;20513;-82
2021/12/08 01:49:07;;;;;;;8.45;2.92;;;4.00;99.90;;;;;;4995282;28;20472;-81
2021/12/08 01:51:33;;;;;;;5.60;2.50;;;3.90;99.90;;;;;;4995364;28;20475;-82
2021/12/08 01:54:02;;;;;;;6.82;2.70;;;4.00;99.90;;;;;;4977291;28;20030;-82
2021/12/08 01:56:29;;;;;;;6.30;2.92;;;4.00;99.90;;;;;;4988272;28;20050;-82
2021/12/08 01:58:56;;;;;;;5.90;2.65;;;4.00;99.90;;;;;;4978857;28;20043;-82
2021/12/08 02:01:25;;;;;;;6.45;3.30;;;4.00;99.90;;;;;;4980027;28;20042;-82
2021/12/08 02:03:52;;;;;;;7.57;3.20;;;4.00;99.90;;;;;;4979031;28;20547;-82
2021/12/08 02:06:19;;;;;;;9.77;3.83;;;4.00;99.90;;;;;;4996581;28;20043;-82
2021/12/08 02:08:47;;;;;;;6.57;3.30;;;4.00;99.90;;;;;;4991109;28;20373;-82
2021/12/08 02:11:13;;;;;;;6.97;3.10;;;4.00;99.90;;;;;;4994886;28;20113;-81
2021/12/08 02:13:40;;;;;;;6.63;2.85;;;4.10;99.90;;;;;;4991527;28;20113;-82
2021/12/08 02:16:15;;;;;;;7.07;3.20;;;4.10;99.90;;;;;;4990312;28;20043;-82
2021/12/08 02:18:44;;;;;;;8.70;3.90;;;4.10;99.90;;;;;;4992882;28;20049;-82
2021/12/08 02:21:30;;;;;;;8.90;3.70;;;4.10;99.90;;;;;;4990574;28;20070;-82
2021/12/08 02:23:58;;;;;;;7.47;3.55;;;4.10;99.90;;;;;;4976585;28;20038;-82
2021/12/08 02:26:26;;;;;;;6.40;3.35;;;4.20;99.90;;;;;;4993714;28;20551;-82
2021/12/08 02:28:53;;;;;;;9.07;3.70;;;4.20;99.90;;;;;;4973936;28;20050;-82
2021/12/08 02:31:28;;;;;;;9.32;4.15;;;4.20;99.90;;;;;;4992647;28;20046;-82
2021/12/08 02:47:54;;;;;;;9.32;4.40;;;4.30;99.90;;;;;;5000543;28;20049;-82
2021/12/08 02:50:34;;;;;;;11.80;4.88;;;4.30;99.90;;;;;;4993476;28;20106;-81
2021/12/08 02:53:03;;;;;;;9.88;4.80;;;4.40;99.90;;;;;;4996919;28;20038;-82
2021/12/08 02:55:30;;;;;;;8.52;4.15;;;4.40;99.90;;;;;;4995937;28;20575;-82
2021/12/08 02:57:57;;;;;;;8.40;4.45;;;4.40;99.90;;;;;;4994257;28;20038;-82
2021/12/08 03:00:26;;;;;;;9.38;4.25;;;4.40;99.90;;;;;;4977694;28;20081;-81
2021/12/08 03:02:58;;;;;;;11.70;4.57;;;4.50;99.90;;;;;;4990099;28;20058;-82
2021/12/08 03:05:24;;;;;;;11.63;6.32;;;4.50;99.90;;;;;;4973614;28;20054;-82
2021/12/08 03:07:51;;;;;;;9.07;4.45;;;4.50;99.90;;;;;;4990204;28;20034;-82
2021/12/08 03:10:20;;;;;;;9.55;4.60;;;4.50;99.90;;;;;;4991012;28;20034;-82
2021/12/08 03:12:46;;;;;;;7.68;4.00;;;4.50;99.90;;;;;;4980200;28;20062;-82
2021/12/08 03:15:13;;;;;;;11.05;5.35;;;4.50;99.90;;;;;;4987110;28;20038;-82
2021/12/08 03:17:39;;;;;;;10.20;4.45;;;4.50;99.90;;;;;;4971918;28;20436;-82
2021/12/08 03:20:08;;;;;;;8.80;4.22;;;4.60;99.90;;;;;;4988878;28;20034;-82
2021/12/08 03:22:39;;;;;;;8.80;4.68;;;4.60;99.90;;;;;;4986294;28;20058;-82
2021/12/08 03:25:07;;;;;;;10.13;4.88;;;4.60;99.90;;;;;;4991768;28;20124;-82
2021/12/08 03:27:38;;;;;;;9.00;4.68;;;4.70;99.90;;;;;;4990840;28;20050;-82
2021/12/08 03:30:18;;;;;;;10.68;5.28;;;4.70;99.90;;;;;;4964408;28;20069;-82
2021/12/08 03:32:45;;;;;;;12.40;6.13;;;4.70;99.90;;;;;;4987839;28;20058;-82
2021/12/08 03:35:16;;;;;;;10.73;5.30;;;4.70;99.90;;;;;;4974281;28;20492;-82
2021/12/08 03:37:45;;;;;;;11.50;5.00;;;4.70;99.90;;;;;;4974975;28;20053;-82
2021/12/08 03:40:13;;;;;;;9.02;4.95;;;4.70;99.90;;;;;;4985513;28;20043;-82
2021/12/08 03:42:39;;;;;;;12.15;5.80;;;4.70;99.90;;;;;;4990304;28;20180;-82
2021/12/08 03:45:11;;;;;;;14.50;5.75;;;4.70;99.90;;;;;;5008667;28;20113;-82
2021/12/08 03:47:41;;;;;;;8.60;4.68;;;4.70;99.90;;;;;;4973696;28;20393;-82
2021/12/08 03:50:09;;;;;;;12.07;6.05;;;4.80;99.90;;;;;;4988725;28;20404;-83
2021/12/08 03:52:37;;;;;;;9.98;5.20;;;4.80;99.90;;;;;;4972605;28;20537;-82
2021/12/08 03:55:05;;;;;;;9.55;5.05;;;4.80;99.90;;;;;;4968553;28;20062;-82
2021/12/08 03:57:30;;;;;;;9.82;4.97;;;4.80;99.90;;;;;;4996103;28;20104;-82
2021/12/08 03:59:56;;;;;;;11.50;5.00;;;4.90;99.90;;;;;;5000483;28;20360;-81
2021/12/08 04:02:21;;;;;;;10.88;4.88;;;4.90;99.90;;;;;;4976394;28;20077;-82
2021/12/08 04:04:50;;;;;;;10.32;5.35;;;4.90;99.90;;;;;;4974423;28;20042;-82
2021/12/08 04:07:18;;;;;;;9.05;3.60;;;4.90;99.90;;;;;;4968528;28;20039;-82
2021/12/08 04:09:47;;;;;;;7.65;4.70;;;5.00;99.90;;;;;;4989610;28;20117;-82
2021/12/08 04:12:16;;;;;;;7.53;3.90;;;5.00;99.90;;;;;;4984646;28;20035;-82
2021/12/08 04:14:47;;;;;;;6.63;4.40;;;5.00;99.90;;;;;;4990231;28;20042;-82
2021/12/08 04:17:19;;;;;;;7.68;4.10;;;5.00;99.90;;;;;;4992015;28;20121;-82
2021/12/08 04:19:46;;;;;;;11.82;5.65;;;5.00;99.90;;;;;;4992050;28;20084;-82
2021/12/08 04:22:17;;;;;;;10.27;4.82;;;5.00;99.90;;;;;;4988080;28;20111;-82
2021/12/08 04:24:45;;;;;;;8.48;4.47;;;5.00;99.90;;;;;;4993743;28;20053;-82
2021/12/08 04:27:16;;;;;;;7.90;4.63;;;4.90;99.90;;;;;;4975815;28;20124;-82
2021/12/08 04:29:44;;;;;;;12.90;5.03;;;4.90;99.90;;;;;;4990500;28;20062;-82
2021/12/08 04:32:15;;;;;;;8.50;4.45;;;4.90;99.90;;;;;;4989609;28;20041;-82
2021/12/08 04:34:45;;;;;;;11.13;4.70;;;4.80;99.90;;;;;;4978562;28;20054;-82
2021/12/08 04:37:25;;;;;;;8.73;4.43;;;4.80;99.90;;;;;;4991716;28;20049;-82
2021/12/08 04:42:34;;;;;;;10.10;4.45;;;4.60;99.90;;;;;;4991828;28;20038;-82
2021/12/08 04:45:08;;;;;;;8.25;4.60;;;4.70;99.90;;;;;;4992642;28;20045;-82
2021/12/08 04:47:36;;;;;;;10.02;4.78;;;4.70;99.90;;;;;;4991272;28;20105;-82
2021/12/08 04:50:26;;;;;;;9.90;4.13;;;4.70;99.90;;;;;;4975992;28;20047;-83
2021/12/08 04:53:00;;;;;;;11.25;4.32;;;4.70;99.90;;;;;;4989094;28;20070;-82
2021/12/08 05:04:42;;;;;;;8.57;4.05;;;4.60;99.90;;;;;;4952545;28;20480;-82
2021/12/08 05:09:55;;;;;;;7.15;3.70;;;4.50;99.90;;;;;;4991756;28;20075;-82
2021/12/08 05:12:25;;;;;;;9.80;4.43;;;4.50;99.90;;;;;;4971700;28;20039;-81
2021/12/08 05:15:15;;;;;;;9.00;4.43;;;4.50;99.90;;;;;;4987437;28;20547;-82
2021/12/08 05:18:06;;;;;;;9.20;3.47;;;4.50;99.90;;;;;;4974625;28;20039;-82
2021/12/08 05:20:36;;;;;;;10.57;4.45;;;4.50;99.90;;;;;;4974378;28;20125;-82
2021/12/08 05:23:22;;;;;;;11.88;4.78;;;4.60;99.90;;;;;;4977784;28;20042;-82
2021/12/08 05:25:49;;;;;;;7.07;3.67;;;4.60;99.90;;;;;;4973813;28;20038;-82
2021/12/08 05:28:18;;;;;;;9.80;4.15;;;4.60;99.90;;;;;;4980911;28;20144;-82
2021/12/08 05:30:48;;;;;;;6.85;3.70;;;4.50;99.90;;;;;;4973902;28;20113;-82
2021/12/08 05:33:14;;;;;;;10.77;4.32;;;4.50;99.90;;;;;;4992024;28;20050;-82
2021/12/08 05:35:41;;;;;;;11.57;3.92;;;4.50;99.90;;;;;;4972384;28;20455;-82
2021/12/08 05:38:07;;;;;;;9.57;4.20;;;4.50;99.90;;;;;;4988504;28;20053;-82
2021/12/08 05:40:39;;;;;;;10.48;3.75;;;4.50;99.90;;;;;;4990591;28;20069;-82
2021/12/08 05:43:07;;;;;;;11.90;4.17;;;4.50;99.90;;;;;;4977686;28;20030;-82
2021/12/08 05:45:34;;;;;;;11.43;4.45;;;4.50;99.90;;;;;;4995960;28;20424;-82
2021/12/08 05:47:59;;;;;;;7.55;3.30;;;4.50;99.90;;;;;;4977321;28;20041;-82
2021/12/08 05:50:36;;;;;;;10.57;3.50;;;4.50;99.90;;;;;;4986446;28;20041;-82
2021/12/08 05:53:02;;;;;;;9.48;3.63;;;4.50;99.90;;;;;;4978138;28;20042;-82
2021/12/08 05:55:28;;;;;;;8.15;4.20;;;4.50;99.90;;;;;;4995560;28;20579;-82
2021/12/08 05:57:55;;;;;;;7.75;3.40;;;4.50;99.90;;;;;;5007269;28;20121;-83
2021/12/08 06:00:29;;;;;;;9.38;3.30;;;4.40;99.90;;;;;;5012386;28;20422;-82
2021/12/08 06:02:56;;;;;;;7.90;3.13;;;4.50;99.90;;;;;;4991756;28;20061;-82
2021/12/08 06:05:30;;;;;;;10.15;3.67;;;4.50;99.90;;;;;;4977938;28;20057;-82
2021/12/08 06:07:58;;;;;;;6.18;2.83;;;4.40;99.90;;;;;;4996421;28;20038;-82
2021/12/08 06:10:31;;;;;;;7.75;3.50;;;4.40;99.90;;;;;;4979223;28;20042;-82
2021/12/08 06:12:57;;;;;;;10.05;3.00;;;4.40;99.90;;;;;;4992677;28;20030;-82
2021/12/08 06:15:23;;;;;;;6.93;2.80;;;4.40;99.90;;;;;;4979809;28;20547;-82
2021/12/08 06:17:49;;;;;;;10.35;3.42;;;4.40;99.90;;;;;;4992683;28;20188;-82
2021/12/08 06:20:16;;;;;;;8.18;2.58;;;4.40;99.90;;;;;;4973179;28;20046;-82
2021/12/08 06:22:44;;;;;;;8.27;3.53;;;4.40;99.90;;;;;;4990785;28;20080;-82
2021/12/08 06:25:11;;;;;;;6.65;2.55;;;4.40;99.90;;;;;;4992081;28;20394;-82
2021/12/08 06:27:37;;;;;;;6.85;2.63;;;4.40;99.90;;;;;;4988566;28;20546;-82
2021/12/08 06:30:05;;;;;;;7.30;2.85;;;4.40;99.90;;;;;;4994466;28;20042;-82
2021/12/08 06:32:31;;;;;;;7.93;2.35;;;4.40;99.90;;;;;;4972532;28;20084;-82
2021/12/08 06:34:58;;;;;;;7.13;2.20;;;4.40;99.90;;;;;;4971196;28;20065;-83
2021/12/08 06:37:32;;;;;;;5.68;1.85;;;4.40;99.90;;;;;;4986944;28;20034;-82
2021/12/08 06:40:16;;;;;;;6.70;2.25;;;4.40;99.90;;;;;;4997376;28;20486;-82
2021/12/08 06:42:45;;;;;;;5.50;2.40;;;4.40;99.90;;;;;;4972806;28;20125;-82
2021/12/08 06:45:16;;;;;;;6.30;2.40;;;4.40;99.90;;;;;;4988383;28;20431;-83
2021/12/08 06:47:43;;;;;;;8.32;2.42;;;4.40;99.90;;;;;;4974355;28;20053;-82
2021/12/08 06:50:18;;;;;;;6.50;2.08;;;4.40;99.90;;;;;;4991316;28;20046;-82
2021/12/08 06:52:44;;;;;;;5.85;2.80;;;4.40;99.90;;;;;;4990339;28;20392;-82
2021/12/08 06:55:21;;;;;;;5.80;1.63;;;4.30;99.90;;;;;;4972960;28;20526;-82
2021/12/08 06:57:57;;;;;;;7.30;1.70;;;4.40;99.90;;;;;;4989184;28;20038;-82
2021/12/08 07:00:45;;;;;;;4.63;1.85;;;4.40;99.90;;;;;;4973644;28;20041;-82
2021/12/08 07:08:24;;;;;;;6.35;1.73;;;4.50;99.90;;;;;;4981103;28;20061;-82
2021/12/08 07:10:52;;;;;;;4.63;1.92;;;4.50;99.90;;;;;;4987655;28;20083;-82
2021/12/08 07:13:22;;;;;;;5.60;2.00;;;4.50;99.90;;;;;;4984956;28;20046;-84
2021/12/08 07:15:52;;;;;;;7.40;2.47;;;4.50;99.90;;;;;;4989182;28;20475;-83
2021/12/08 07:18:25;;;;;;;5.00;1.33;;;4.40;99.90;;;;;;4969798;28;20418;-84
2021/12/08 07:20:58;;;;;;;6.43;1.75;;;4.40;99.90;;;;;;4971931;28;20053;-84
2021/12/08 07:23:36;;;;;;;15.90;1.67;;;4.40;99.90;;;;;;4990153;28;20125;-83
2021/12/08 07:26:12;;;;;;;2.78;1.23;;;4.40;99.90;;;;;;4986401;28;20045;-84
2021/12/08 07:28:40;;;;;;;4.75;1.20;;;4.40;99.90;;;;;;5008920;28;20046;-83
2021/12/08 07:31:27;;;;;;;4.03;1.05;;;4.30;99.90;;;;;;4985028;28;20088;-84
2021/12/08 07:33:54;;;;;;;7.93;1.40;;;4.30;99.90;;;;;;4987598;28;20122;-83
2021/12/08 07:36:22;;;;;;;5.75;1.40;;;4.30;99.90;;;;;;4976922;28;20038;-85
2021/12/08 07:38:52;;;;;;;7.13;1.52;;;4.20;99.90;;;;;;4986378;28;20034;-83
2021/12/08 07:41:26;;;;;;;8.93;1.52;;;4.30;99.90;;;;;;4986431;28;20052;-84
2021/12/08 07:43:54;;;;;;;9.88;1.70;;;4.30;99.90;;;;;;4972587;28;20061;-84
2021/12/08 07:46:33;;;;;;;5.25;1.42;;;4.40;99.90;;;;;;4988783;28;20034;-84
2021/12/08 07:49:05;;;;;;;4.03;1.05;;;4.40;99.90;;;;;;4985887;28;20043;-84
2021/12/08 07:51:37;;;;;;;6.38;1.40;;;4.50;99.90;;;;;;4976520;28;20042;-85
2021/12/08 07:54:06;;;;;;;4.32;0.95;;;4.40;99.90;;;;;;4989568;28;20038;-83
2021/12/08 07:56:33;;;;;;;7.10;1.70;;;4.50;99.90;;;;;;4986373;28;20105;-84
2021/12/08 07:59:10;;;;;;;5.93;1.10;;;4.50;99.90;;;;;;4971545;28;20060;-84
2021/12/08 08:01:42;;;;;;;3.53;0.90;;;4.40;99.90;;;;;;4984264;28;20065;-83
2021/12/08 08:04:12;;;;;;;3.28;0.73;;;4.50;99.90;;;;;;4986526;28;20403;-83
2021/12/08 08:06:48;;;;;;;6.15;1.05;;;4.40;99.90;;;;;;4987254;28;20475;-83
2021/12/08 08:09:21;;;;;;;3.17;0.68;;;4.40;99.90;;;;;;4984251;28;20385;-84
2021/12/08 08:11:55;;;;;;;3.78;0.93;;;4.50;99.90;;;;;;4988463;28;20053;-84
2021/12/08 08:14:27;;;;;;;8.30;1.30;;;4.50;99.90;;;;;;4983675;28;20045;-83
2021/12/08 08:16:56;;;;;;;6.77;1.30;;;4.50;99.90;;;;;;4986841;28;20066;-83
2021/12/08 08:19:27;;;;;;;9.63;0.93;;;4.50;99.90;;;;;;4984717;28;20104;-83
2021/12/08 08:21:57;;;;;;;3.20;0.75;;;4.50;99.90;;;;;;4985506;28;20558;-83
2021/12/08 08:24:23;;;;;;;5.80;0.85;;;4.50;99.90;;;;;;4980770;28;21701;-83
2021/12/08 08:26:51;;;;;;;4.00;1.00;;;4.50;99.90;;;;;;4987083;28;20053;-83
2021/12/08 08:29:18;;;;;;;3.03;0.85;;;4.50;99.90;;;;;;4962090;28;20080;-83
2021/12/08 08:32:16;;;;;;;3.45;1.10;;;4.50;99.90;;;;;;4962173;28;20035;-83
2021/12/08 08:34:45;;;;;;;4.90;1.17;;;4.50;99.90;;;;;;4985056;28;20400;-83
2021/12/08 08:37:12;;;;;;;6.03;1.00;;;4.60;99.90;;;;;;4987107;28;20053;-83
2021/12/08 08:39:45;;;;;;;6.50;0.98;;;4.70;99.90;;;;;;4990979;28;20484;-83
2021/12/08 08:42:19;;;;;;;2.65;0.50;;;4.60;99.90;;;;;;4971072;28;20038;-83
2021/12/08 08:44:54;;;;;;;6.90;0.80;;;4.60;99.90;;;;;;4971250;28;20065;-83
2021/12/08 08:47:30;;;;;;;3.05;0.88;;;4.70;99.90;;;;;;4976042;28;20045;-83
2021/12/08 08:49:56;;;;;;;4.70;1.13;;;4.60;99.90;;;;;;4989643;28;20099;-83
2021/12/08 08:52:27;;;;;;;7.47;0.93;;;4.60;99.90;;;;;;4967900;28;20074;-83
2021/12/08 08:54:55;;;;;;;4.68;0.82;;;4.70;99.90;;;;;;4972166;28;20073;-83
2021/12/08 08:57:26;;;;;;;4.10;0.73;;;4.60;99.90;;;;;;4973331;28;20117;-83
2021/12/08 08:59:58;;;;;;;8.55;1.25;;;4.60;99.90;;;;;;4989750;28;20078;-83
2021/12/08 09:02:34;;;;;;;6.22;1.50;;;4.60;99.90;;;;;;4988269;28;20062;-83
2021/12/08 09:05:06;;;;;;;3.72;0.80;;;4.60;99.90;;;;;;4992109;28;20049;-84
2021/12/08 09:07:39;;;;;;;7.95;0.90;;;4.70;99.90;;;;;;5002966;28;20483;-83
2021/12/08 09:10:18;;;;;;;4.43;0.93;;;4.70;99.90;;;;;;4989836;28;20086;-83
2021/12/08 09:12:56;;;;;;;8.73;1.10;;;4.70;99.90;;;;;;4989378;28;20125;-83
2021/12/08 09:15:54;;;;;;;8.32;1.10;;;4.70;99.90;;;;;;4990163;28;20416;-83
2021/12/08 09:18:39;;;;;;;8.80;0.95;;;4.70;99.90;;;;;;4967546;28;20061;-82
2021/12/08 09:21:31;;;;;;;6.20;1.27;;;4.70;99.90;;;;;;4991402;28;20392;-84
2021/12/08 09:24:34;;;;;;;3.50;0.82;;;4.70;99.90;;;;;;4983262;28;20121;-83
2021/12/08 09:27:02;;;;;;;9.43;1.13;;;4.70;99.90;;;;;;4947086;28;20073;-83
2021/12/08 09:29:42;;;;;;;3.63;0.95;;;4.70;99.90;;;;;;4989942;28;20050;-83
2021/12/08 09:32:11;;;;;;;6.55;1.38;;;4.80;99.90;;;;;;4980885;28;20068;-83
2021/12/08 09:34:42;;;;;;;3.42;0.73;;;4.90;99.90;;;;;;5002817;28;20603;-84
2021/12/08 09:37:14;;;;;;;6.20;1.00;;;4.90;99.90;;;;;;4967868;28;20491;-83
2021/12/08 09:39:45;;;;;;;5.10;0.80;;;5.00;99.90;;;;;;4993003;28;20038;-83
2021/12/08 09:42:16;;;;;;;5.57;1.17;;;5.00;99.90;;;;;;4966182;28;20043;-83
2021/12/08 09:44:49;;;;;;;4.60;1.30;;;5.00;99.90;;;;;;4973891;28;20042;-83
2021/12/08 09:47:15;;;;;;;10.75;1.13;;;5.10;99.90;;;;;;4989639;28;20057;-83
2021/12/08 09:49:41;;;;;;;8.43;1.67;;;5.10;99.90;;;;;;4988287;28;20039;-83
2021/12/08 09:52:08;;;;;;;5.32;1.02;;;5.20;99.90;;;;;;4984967;28;20456;-83
2021/12/08 09:54:37;;;;;;;5.65;0.80;;;5.30;99.90;;;;;;4986164;28;20038;-83
2021/12/08 09:57:07;;;;;;;8.52;1.13;;;5.30;99.90;;;;;;4988749;28;20046;-83
2021/12/08 09:59:34;;;;;;;4.40;0.82;;;5.30;99.90;;;;;;4965745;28;20474;-83
2021/12/08 10:02:03;;;;;;;10.68;1.20;;;5.40;99.90;;;;;;4969963;28;20042;-83
2021/12/08 10:04:29;;;;;;;5.20;1.33;;;5.40;99.90;;;;;;4975625;28;20085;-83
2021/12/08 10:06:59;;;;;;;7.65;0.98;;;5.40;99.90;;;;;;4977125;28;20072;-84
2021/12/08 10:09:24;;;;;;;9.23;1.00;;;5.50;99.90;;;;;;4980608;28;20049;-83
2021/12/08 10:11:54;;;;;;;8.52;1.48;;;5.60;99.90;;;;;;4979352;28;20034;-83
2021/12/08 10:14:20;;;;;;;5.68;1.05;;;5.60;99.90;;;;;;4993610;28;20054;-84
2021/12/08 10:16:48;;;;;;;4.65;0.90;;;5.60;99.90;;;;;;4984523;28;20038;-84
2021/12/08 10:19:17;;;;;;;5.07;0.85;;;5.70;99.90;;;;;;4992280;28;20046;-83
2021/12/08 10:21:43;;;;;;;5.85;1.85;;;5.70;99.90;;;;;;4991865;28;20191;-84
2021/12/08 10:24:24;;;;;;;9.32;1.73;;;5.80;99.90;;;;;;4994638;28;20403;-84
2021/12/08 10:26:59;;;;;;;5.07;1.05;;;5.90;99.90;;;;;;4967115;28;21647;-84
2021/12/08 10:29:27;;;;;;;4.75;0.80;;;6.00;99.90;;;;;;4992236;28;20123;-84
2021/12/08 10:31:54;;;;;;;7.78;1.35;;;5.90;99.90;;;;;;4997656;28;20486;-84
2021/12/08 10:34:25;;;;;;;7.88;0.93;;;5.90;99.90;;;;;;4995832;28;20052;-84
2021/12/08 10:37:04;;;;;;;8.80;1.08;;;6.00;99.90;;;;;;4977988;28;20045;-84
2021/12/08 10:39:47;;;;;;;9.10;1.30;;;6.10;99.90;;;;;;4997273;28;20046;-84
2021/12/08 10:42:26;;;;;;;3.08;0.70;;;6.20;99.90;;;;;;4974957;28;20033;-84
2021/12/08 10:45:26;;;;;;;4.63;1.20;;;6.30;99.90;;;;;;4996967;28;20045;-83
2021/12/08 10:47:57;;;;;;;6.50;0.80;;;6.40;99.90;;;;;;4985403;28;20050;-84
2021/12/08 10:56:08;;;;;;;4.93;0.82;;;7.70;99.90;;;;;;5019363;28;20069;-84
2021/12/08 10:58:36;;;;;;;8.60;0.80;;;8.00;99.90;;;;;;4994329;28;20069;-84
2021/12/08 11:01:11;;;;;;;3.97;0.85;;;8.30;99.90;;;;;;4977840;28;20046;-84
2021/12/08 11:03:39;;;;;;;4.05;0.77;;;8.50;99.90;;;;;;4980264;28;20527;-84
2021/12/08 11:06:06;;;;;;;4.05;0.73;;;8.50;99.90;;;;;;4993081;28;20096;-84
2021/12/08 11:08:40;;;;;;;6.03;0.80;;;8.70;99.90;;;;;;4988709;28;20046;-83
2021/12/08 11:11:12;;;;;;;6.47;0.93;;;8.80;99.90;;;;;;4991555;28;20514;-84
2021/12/08 11:13:44;;;;;;;2.75;1.35;;;8.40;99.90;;;;;;4982043;28;20134;-84
2021/12/08 11:16:20;;;;;;;3.22;0.77;;;8.10;99.90;;;;;;4995502;28;20030;-84
2021/12/08 11:18:52;;;;;;;4.10;0.85;;;7.80;99.90;;;;;;5023893;28;20111;-84
2021/12/08 11:21:27;;;;;;;5.35;0.90;;;7.50;99.90;;;;;;5006258;28;20471;-84
2021/12/08 11:23:56;;;;;;;6.85;1.10;;;7.20;99.90;;;;;;4995935;28;20133;-84
2021/12/08 11:26:48;;;;;;;8.02;1.00;;;7.00;99.90;;;;;;4995412;28;20064;-84
2021/12/08 11:29:17;;;;;;;3.88;0.73;;;6.90;99.90;;;;;;4990737;28;20063;-83
2021/12/08 11:31:54;;;;;;;5.70;0.90;;;6.70;99.90;;;;;;4975054;28;20046;-84
2021/12/08 11:34:23;;;;;;;4.90;0.73;;;6.70;99.90;;;;;;4978196;28;20475;-84
2021/12/08 11:36:56;;;;;;;7.10;1.10;;;6.60;99.90;;;;;;4978693;28;20598;-85
2021/12/08 11:39:30;;;;;;;7.28;0.90;;;6.50;99.90;;;;;;5001049;28;20452;-83
2021/12/08 11:42:06;;;;;;;7.30;1.10;;;6.50;99.90;;;;;;4996153;28;20034;-83
2021/12/08 11:44:36;;;;;;;2.67;0.63;;;6.50;99.90;;;;;;4993352;28;20080;-83
2021/12/08 11:47:28;;;;;;;6.38;0.90;;;6.50;99.90;;;;;;4992330;28;20069;-84
2021/12/08 11:49:58;;;;;;;4.93;1.05;;;6.50;99.90;;;;;;4968430;28;20050;-82
2021/12/08 11:52:29;;;;;;;3.80;0.77;;;6.50;99.90;;;;;;4982965;28;20051;-81
2021/12/08 11:55:12;;;;;;;3.25;1.05;;;6.50;99.90;;;;;;4992342;28;20053;-82
2021/12/08 11:57:42;;;;;;;4.88;0.90;;;6.40;99.90;;;;;;4984389;28;20074;-82
2021/12/08 12:00:26;;;;;;;3.67;0.68;;;6.40;99.90;;;;;;4976014;28;20045;-82
2021/12/08 12:03:10;;;;;;;4.13;0.70;;;6.40;99.90;;;;;;4973032;28;20057;-82
2021/12/08 12:05:47;;;;;;;7.05;0.98;;;6.40;99.90;;;;;;4987758;28;20486;-82
2021/12/08 12:08:16;;;;;;;4.07;0.93;;;6.40;99.90;;;;;;4983816;28;20042;-81
2021/12/08 12:10:50;;;;;;;5.10;0.80;;;6.30;99.90;;;;;;4984065;28;20046;-82
2021/12/08 12:13:17;;;;;;;5.32;0.98;;;6.30;99.90;;;;;;4988566;28;20042;-82
2021/12/08 12:15:49;;;;;;;3.83;0.85;;;6.30;99.90;;;;;;4986470;28;20045;-82
2021/12/08 12:18:18;;;;;;;6.07;1.10;;;6.30;99.90;;;;;;4988955;28;20034;-81
2021/12/08 12:20:54;;;;;;;6.35;1.33;;;6.30;99.90;;;;;;4973433;28;20535;-81
2021/12/08 12:23:45;;;;;;;8.80;1.20;;;6.30;99.90;;;;;;4971778;28;20570;-82
2021/12/08 12:26:39;;;;;;;4.90;1.60;;;6.30;99.90;;;;;;4990572;28;20137;-82
2021/12/08 12:29:19;;;;;;;9.88;1.15;;;6.40;99.90;;;;;;4988222;28;20046;-82
2021/12/08 12:32:04;;;;;;;3.72;0.95;;;6.40;99.90;;;;;;4989469;28;20129;-82
2021/12/08 12:34:33;;;;;;;5.47;1.33;;;6.40;99.90;;;;;;4983341;28;20042;-81
2021/12/08 12:37:04;;;;;;;6.35;1.35;;;6.40;99.90;;;;;;4987758;28;20400;-82
2021/12/08 12:39:31;;;;;;;4.40;1.00;;;6.40;99.90;;;;;;4984659;28;20064;-81
2021/12/08 12:42:10;;;;;;;6.97;1.00;;;6.50;99.90;;;;;;4991907;28;20053;-82
2021/12/08 12:44:37;;;;;;;6.32;1.30;;;6.50;99.90;;;;;;5002055;28;20575;-82
2021/12/08 12:47:08;;;;;;;4.80;0.80;;;6.40;99.90;;;;;;4987948;28;20082;-82
2021/12/08 12:49:39;;;;;;;5.75;1.10;;;6.50;99.90;;;;;;4991011;28;20038;-82
2021/12/08 12:52:08;;;;;;;4.75;1.48;;;6.50;99.90;;;;;;4990083;28;20555;-82
2021/12/08 12:54:34;;;;;;;4.78;1.33;;;6.40;99.90;;;;;;4990399;28;20054;-82
2021/12/08 12:57:00;;;;;;;5.85;1.67;;;6.40;99.90;;;;;;4974354;28;20038;-82
2021/12/08 12:59:49;;;;;;;2.67;1.08;;;6.40;99.90;;;;;;4989317;28;20033;-82
2021/12/08 13:02:23;;;;;;;6.47;1.25;;;6.40;99.90;;;;;;4975429;28;20049;-82
2021/12/08 13:04:57;;;;;;;4.57;1.63;;;6.40;99.90;;;;;;4974994;28;20039;-82
2021/12/08 13:07:25;;;;;;;5.85;1.60;;;6.40;99.90;;;;;;4970837;28;20558;-82
2021/12/08 13:09:54;;;;;;;5.35;1.67;;;6.40;99.90;;;;;;5016491;28;20046;-82
2021/12/08 13:12:24;;;;;;;6.55;1.60;;;6.40;99.90;;;;;;4992876;28;20037;-82
2021/12/08 13:15:08;;;;;;;5.05;1.45;;;6.50;99.90;;;;;;5022705;28;20553;-82
2021/12/08 13:17:34;;;;;;;3.33;1.38;;;6.60;99.90;;;;;;4981708;28;20044;-82
2021/12/08 13:20:04;;;;;;;6.60;1.80;;;6.60;99.90;;;;;;4993811;28;20492;-82
2021/12/08 13:22:54;;;;;;;4.55;1.25;;;6.60;99.90;;;;;;4964547;28;20104;-82
2021/12/08 13:25:32;;;;;;;6.40;2.08;;;6.60;99.90;;;;;;4985577;28;20042;-82
2021/12/08 13:28:15;;;;;;;5.82;1.58;;;6.60;99.90;;;;;;4994230;28;20084;-82
2021/12/08 13:30:51;;;;;;;8.30;1.90;;;6.60;99.90;;;;;;4993269;28;20514;-82
2021/12/08 13:33:32;;;;;;;5.85;1.45;;;6.60;99.90;;;;;;4993273;28;20048;-81
2021/12/08 13:36:20;;;;;;;4.95;1.70;;;6.70;99.90;;;;;;4991837;28;20066;-81
2021/12/08 13:39:09;;;;;;;3.70;1.20;;;6.70;99.90;;;;;;4993883;28;20041;-82
2021/12/08 13:41:38;;;;;;;4.57;1.00;;;6.70;99.90;;;;;;4990876;28;20045;-82
2021/12/08 13:44:22;;;;;;;3.75;1.27;;;6.60;99.90;;;;;;4977144;28;20061;-82
2021/12/08 13:46:51;;;;;;;7.15;1.40;;;6.60;99.90;;;;;;4981763;28;20045;-82
2021/12/08 13:49:51;;;;;;;6.05;1.25;;;6.50;99.90;;;;;;4997395;28;20073;-83
2021/12/08 13:52:25;;;;;;;4.32;1.27;;;6.50;99.90;;;;;;5012802;28;20257;-82
2021/12/08 13:54:54;;;;;;;8.05;1.77;;;6.50;99.90;;;;;;4997462;28;20089;-82
2021/12/08 13:57:37;;;;;;;6.85;1.65;;;6.40;99.90;;;;;;4978193;28;20042;-82
2021/12/08 14:00:11;;;;;;;3.92;1.23;;;6.40;99.90;;;;;;4994901;28;20052;-82
2021/12/08 14:02:37;;;;;;;4.97;1.48;;;6.40;99.90;;;;;;4993658;28;20137;-82